sensor_id;sensor_type;location;lat;lon;timestamp;P1;durP1;ratioP1;P2;durP2;ratioP2
72791;SDS011;60907;53.268;8.764;2022-12-07T00:01:31;14.55;;;6.72;;
72791;SDS011;60907;53.268;8.764;2022-12-07T00:03:59;13.13;;;6.68;;
72791;SDS011;60907;53.268;8.764;2022-12-07T00:06:30;15.13;;;6.45;;
72791;SDS011;60907;53.268;8.764;2022-12-07T00:08:59;13.40;;;5.97;;
72791;SDS011;60907;53.268;8.764;2022-12-07T00:11:25;15.65;;;6.30;;
72791;SDS011;60907;53.268;8.764;2022-12-07T00:13:51;13.88;;;5.95;;
72791;SDS011;60907;53.268;8.764;2022-12-07T00:16:18;9.57;;;4.90;;
72791;SDS011;60907;53.268;8.764;2022-12-07T00:18:44;11.18;;;4.75;;
72791;SDS011;60907;53.268;8.764;2022-12-07T00:21:17;11.38;;;4.68;;
72791;SDS011;60907;53.268;8.764;2022-12-07T00:23:45;13.07;;;4.90;;
72791;SDS011;60907;53.268;8.764;2022-12-07T00:26:13;10.32;;;4.32;;
72791;SDS011;60907;53.268;8.764;2022-12-07T00:28:38;10.43;;;4.32;;
72791;SDS011;60907;53.268;8.764;2022-12-07T00:31:08;7.88;;;3.78;;
72791;SDS011;60907;53.268;8.764;2022-12-07T00:33:35;9.85;;;3.63;;
72791;SDS011;60907;53.268;8.764;2022-12-07T00:36:01;9.82;;;4.15;;
72791;SDS011;60907;53.268;8.764;2022-12-07T00:38:29;7.38;;;3.97;;
72791;SDS011;60907;53.268;8.764;2022-12-07T00:41:00;9.52;;;4.25;;
72791;SDS011;60907;53.268;8.764;2022-12-07T00:43:27;9.35;;;4.32;;
72791;SDS011;60907;53.268;8.764;2022-12-07T00:45:53;10.30;;;4.55;;
72791;SDS011;60907;53.268;8.764;2022-12-07T00:48:19;9.77;;;4.70;;
72791;SDS011;60907;53.268;8.764;2022-12-07T00:50:44;8.77;;;4.20;;
72791;SDS011;60907;53.268;8.764;2022-12-07T00:53:09;9.35;;;3.85;;
72791;SDS011;60907;53.268;8.764;2022-12-07T00:55:35;12.18;;;4.60;;
72791;SDS011;60907;53.268;8.764;2022-12-07T00:58:01;13.43;;;4.20;;
72791;SDS011;60907;53.268;8.764;2022-12-07T01:00:27;9.90;;;3.67;;
72791;SDS011;60907;53.268;8.764;2022-12-07T01:02:52;9.40;;;3.50;;
72791;SDS011;60907;53.268;8.764;2022-12-07T01:05:18;10.88;;;4.13;;
72791;SDS011;60907;53.268;8.764;2022-12-07T01:07:43;8.13;;;3.70;;
72791;SDS011;60907;53.268;8.764;2022-12-07T01:10:09;8.35;;;3.58;;
72791;SDS011;60907;53.268;8.764;2022-12-07T01:12:34;12.40;;;4.13;;
72791;SDS011;60907;53.268;8.764;2022-12-07T01:15:00;7.95;;;3.08;;
72791;SDS011;60907;53.268;8.764;2022-12-07T01:17:25;7.63;;;2.75;;
72791;SDS011;60907;53.268;8.764;2022-12-07T01:19:51;5.20;;;2.95;;
72791;SDS011;60907;53.268;8.764;2022-12-07T01:22:16;7.63;;;3.23;;
72791;SDS011;60907;53.268;8.764;2022-12-07T01:24:42;5.13;;;2.20;;
72791;SDS011;60907;53.268;8.764;2022-12-07T01:27:07;8.82;;;2.47;;
72791;SDS011;60907;53.268;8.764;2022-12-07T01:29:32;8.77;;;3.00;;
72791;SDS011;60907;53.268;8.764;2022-12-07T01:31:58;6.00;;;2.33;;
72791;SDS011;60907;53.268;8.764;2022-12-07T01:34:23;5.87;;;1.93;;
72791;SDS011;60907;53.268;8.764;2022-12-07T01:36:48;5.60;;;1.90;;
72791;SDS011;60907;53.268;8.764;2022-12-07T01:39:14;6.78;;;2.35;;
72791;SDS011;60907;53.268;8.764;2022-12-07T01:41:40;3.78;;;1.40;;
72791;SDS011;60907;53.268;8.764;2022-12-07T01:46:45;3.38;;;1.48;;
72791;SDS011;60907;53.268;8.764;2022-12-07T01:49:37;6.18;;;1.60;;
72791;SDS011;60907;53.268;8.764;2022-12-07T01:52:14;4.13;;;1.17;;
72791;SDS011;60907;53.268;8.764;2022-12-07T01:54:41;4.10;;;1.35;;
72791;SDS011;60907;53.268;8.764;2022-12-07T01:57:07;3.08;;;0.88;;
72791;SDS011;60907;53.268;8.764;2022-12-07T01:59:33;4.93;;;1.00;;
72791;SDS011;60907;53.268;8.764;2022-12-07T02:01:58;2.28;;;0.85;;
72791;SDS011;60907;53.268;8.764;2022-12-07T02:04:25;2.85;;;0.65;;
72791;SDS011;60907;53.268;8.764;2022-12-07T02:06:51;1.70;;;0.70;;
72791;SDS011;60907;53.268;8.764;2022-12-07T02:09:17;5.00;;;0.65;;
72791;SDS011;60907;53.268;8.764;2022-12-07T02:11:42;1.90;;;0.50;;
72791;SDS011;60907;53.268;8.764;2022-12-07T02:14:08;3.03;;;0.88;;
72791;SDS011;60907;53.268;8.764;2022-12-07T02:22:13;5.50;;;1.10;;
72791;SDS011;60907;53.268;8.764;2022-12-07T02:27:29;2.50;;;0.70;;
72791;SDS011;60907;53.268;8.764;2022-12-07T02:40:28;6.15;;;1.33;;
72791;SDS011;60907;53.268;8.764;2022-12-07T02:43:20;3.28;;;1.33;;
72791;SDS011;60907;53.268;8.764;2022-12-07T02:45:48;3.72;;;1.10;;
72791;SDS011;60907;53.268;8.764;2022-12-07T02:48:17;3.42;;;1.40;;
72791;SDS011;60907;53.268;8.764;2022-12-07T02:50:44;3.00;;;1.08;;
72791;SDS011;60907;53.268;8.764;2022-12-07T03:10:16;3.17;;;1.00;;
72791;SDS011;60907;53.268;8.764;2022-12-07T03:24:29;3.90;;;0.88;;
72791;SDS011;60907;53.268;8.764;2022-12-07T03:27:03;4.63;;;1.08;;
72791;SDS011;60907;53.268;8.764;2022-12-07T03:29:40;2.17;;;0.50;;
72791;SDS011;60907;53.268;8.764;2022-12-07T03:34:44;1.70;;;0.35;;
72791;SDS011;60907;53.268;8.764;2022-12-07T03:37:14;4.88;;;0.68;;
72791;SDS011;60907;53.268;8.764;2022-12-07T03:39:59;0.43;;;0.30;;
72791;SDS011;60907;53.268;8.764;2022-12-07T03:42:30;0.63;;;0.52;;
72791;SDS011;60907;53.268;8.764;2022-12-07T03:44:56;1.30;;;0.50;;
72791;SDS011;60907;53.268;8.764;2022-12-07T03:47:29;1.92;;;0.60;;
72791;SDS011;60907;53.268;8.764;2022-12-07T03:50:05;2.90;;;0.63;;
72791;SDS011;60907;53.268;8.764;2022-12-07T03:52:37;0.85;;;0.30;;
72791;SDS011;60907;53.268;8.764;2022-12-07T03:55:16;1.35;;;0.30;;
72791;SDS011;60907;53.268;8.764;2022-12-07T03:57:44;2.83;;;0.63;;
72791;SDS011;60907;53.268;8.764;2022-12-07T04:00:13;1.48;;;0.20;;
72791;SDS011;60907;53.268;8.764;2022-12-07T04:02:38;1.77;;;0.32;;
72791;SDS011;60907;53.268;8.764;2022-12-07T04:05:05;2.25;;;0.43;;
72791;SDS011;60907;53.268;8.764;2022-12-07T04:07:31;2.15;;;0.63;;
72791;SDS011;60907;53.268;8.764;2022-12-07T04:09:57;1.65;;;0.20;;
72791;SDS011;60907;53.268;8.764;2022-12-07T04:12:23;1.83;;;0.50;;
72791;SDS011;60907;53.268;8.764;2022-12-07T04:14:48;2.50;;;0.50;;
72791;SDS011;60907;53.268;8.764;2022-12-07T04:17:14;1.42;;;0.43;;
72791;SDS011;60907;53.268;8.764;2022-12-07T04:19:39;3.47;;;0.50;;
72791;SDS011;60907;53.268;8.764;2022-12-07T04:22:05;0.73;;;0.43;;
72791;SDS011;60907;53.268;8.764;2022-12-07T04:24:31;1.50;;;0.50;;
72791;SDS011;60907;53.268;8.764;2022-12-07T04:26:57;2.25;;;0.80;;
72791;SDS011;60907;53.268;8.764;2022-12-07T04:29:22;3.88;;;0.40;;
72791;SDS011;60907;53.268;8.764;2022-12-07T04:31:48;4.65;;;0.60;;
72791;SDS011;60907;53.268;8.764;2022-12-07T04:34:14;2.35;;;0.57;;
72791;SDS011;60907;53.268;8.764;2022-12-07T04:36:41;2.15;;;0.82;;
72791;SDS011;60907;53.268;8.764;2022-12-07T04:39:08;2.90;;;0.50;;
72791;SDS011;60907;53.268;8.764;2022-12-07T04:41:44;2.55;;;0.63;;
72791;SDS011;60907;53.268;8.764;2022-12-07T04:44:09;3.53;;;0.32;;
72791;SDS011;60907;53.268;8.764;2022-12-07T04:46:35;2.45;;;0.40;;
72791;SDS011;60907;53.268;8.764;2022-12-07T04:49:00;1.70;;;0.30;;
72791;SDS011;60907;53.268;8.764;2022-12-07T04:51:27;1.35;;;0.40;;
72791;SDS011;60907;53.268;8.764;2022-12-07T04:53:53;2.40;;;0.57;;
72791;SDS011;60907;53.268;8.764;2022-12-07T04:56:19;2.45;;;0.30;;
72791;SDS011;60907;53.268;8.764;2022-12-07T04:58:45;1.92;;;0.30;;
72791;SDS011;60907;53.268;8.764;2022-12-07T05:01:12;1.77;;;0.38;;
72791;SDS011;60907;53.268;8.764;2022-12-07T05:03:38;1.92;;;0.50;;
72791;SDS011;60907;53.268;8.764;2022-12-07T05:06:04;1.13;;;0.15;;
72791;SDS011;60907;53.268;8.764;2022-12-07T05:08:30;3.40;;;0.50;;
72791;SDS011;60907;53.268;8.764;2022-12-07T05:10:55;2.47;;;0.68;;
72791;SDS011;60907;53.268;8.764;2022-12-07T05:13:21;1.55;;;0.70;;
72791;SDS011;60907;53.268;8.764;2022-12-07T05:15:47;2.28;;;0.80;;
72791;SDS011;60907;53.268;8.764;2022-12-07T05:18:12;2.67;;;0.70;;
72791;SDS011;60907;53.268;8.764;2022-12-07T05:20:38;3.05;;;0.73;;
72791;SDS011;60907;53.268;8.764;2022-12-07T05:23:04;2.67;;;0.60;;
72791;SDS011;60907;53.268;8.764;2022-12-07T05:25:30;2.53;;;1.20;;
72791;SDS011;60907;53.268;8.764;2022-12-07T05:27:55;4.65;;;0.77;;
72791;SDS011;60907;53.268;8.764;2022-12-07T05:30:21;2.47;;;1.00;;
72791;SDS011;60907;53.268;8.764;2022-12-07T05:32:48;4.20;;;1.10;;
72791;SDS011;60907;53.268;8.764;2022-12-07T05:35:13;3.15;;;0.77;;
72791;SDS011;60907;53.268;8.764;2022-12-07T05:37:39;3.55;;;0.70;;
72791;SDS011;60907;53.268;8.764;2022-12-07T05:40:04;3.85;;;1.05;;
72791;SDS011;60907;53.268;8.764;2022-12-07T05:42:30;3.78;;;1.13;;
72791;SDS011;60907;53.268;8.764;2022-12-07T05:44:56;2.00;;;0.75;;
72791;SDS011;60907;53.268;8.764;2022-12-07T05:47:21;1.75;;;0.93;;
72791;SDS011;60907;53.268;8.764;2022-12-07T05:49:47;2.75;;;0.98;;
72791;SDS011;60907;53.268;8.764;2022-12-07T05:52:12;3.88;;;1.30;;
72791;SDS011;60907;53.268;8.764;2022-12-07T05:54:38;5.05;;;1.38;;
72791;SDS011;60907;53.268;8.764;2022-12-07T05:57:03;1.70;;;0.50;;
72791;SDS011;60907;53.268;8.764;2022-12-07T05:59:29;1.42;;;0.85;;
72791;SDS011;60907;53.268;8.764;2022-12-07T06:01:55;3.38;;;0.77;;
72791;SDS011;60907;53.268;8.764;2022-12-07T06:04:21;1.25;;;0.50;;
72791;SDS011;60907;53.268;8.764;2022-12-07T06:06:48;0.75;;;0.40;;
72791;SDS011;60907;53.268;8.764;2022-12-07T06:09:16;0.77;;;0.40;;
72791;SDS011;60907;53.268;8.764;2022-12-07T06:11:43;0.90;;;0.45;;
72791;SDS011;60907;53.268;8.764;2022-12-07T06:14:27;1.55;;;0.60;;
72791;SDS011;60907;53.268;8.764;2022-12-07T06:16:53;1.73;;;0.43;;
72791;SDS011;60907;53.268;8.764;2022-12-07T06:19:18;2.40;;;0.25;;
72791;SDS011;60907;53.268;8.764;2022-12-07T06:21:44;1.58;;;0.40;;
72791;SDS011;60907;53.268;8.764;2022-12-07T06:24:13;1.42;;;0.32;;
72791;SDS011;60907;53.268;8.764;2022-12-07T06:26:39;0.80;;;0.30;;
72791;SDS011;60907;53.268;8.764;2022-12-07T06:29:04;1.05;;;0.30;;
72791;SDS011;60907;53.268;8.764;2022-12-07T06:31:30;3.00;;;0.60;;
72791;SDS011;60907;53.268;8.764;2022-12-07T06:33:57;3.55;;;0.85;;
72791;SDS011;60907;53.268;8.764;2022-12-07T06:36:26;1.52;;;0.63;;
72791;SDS011;60907;53.268;8.764;2022-12-07T06:38:52;2.30;;;0.40;;
72791;SDS011;60907;53.268;8.764;2022-12-07T06:41:17;0.52;;;0.30;;
72791;SDS011;60907;53.268;8.764;2022-12-07T06:43:43;2.35;;;0.60;;
72791;SDS011;60907;53.268;8.764;2022-12-07T06:46:08;0.60;;;0.22;;
72791;SDS011;60907;53.268;8.764;2022-12-07T06:48:34;1.13;;;0.50;;
72791;SDS011;60907;53.268;8.764;2022-12-07T06:50:59;3.13;;;0.90;;
72791;SDS011;60907;53.268;8.764;2022-12-07T06:53:25;2.53;;;0.40;;
72791;SDS011;60907;53.268;8.764;2022-12-07T06:55:50;2.28;;;0.45;;
72791;SDS011;60907;53.268;8.764;2022-12-07T06:58:16;2.55;;;0.40;;
72791;SDS011;60907;53.268;8.764;2022-12-07T07:00:42;1.88;;;0.35;;
72791;SDS011;60907;53.268;8.764;2022-12-07T07:03:08;2.03;;;0.40;;
72791;SDS011;60907;53.268;8.764;2022-12-07T07:05:34;1.52;;;0.40;;
72791;SDS011;60907;53.268;8.764;2022-12-07T07:07:59;3.15;;;0.70;;
72791;SDS011;60907;53.268;8.764;2022-12-07T07:10:25;3.28;;;0.65;;
72791;SDS011;60907;53.268;8.764;2022-12-07T07:12:50;2.17;;;0.30;;
72791;SDS011;60907;53.268;8.764;2022-12-07T07:15:16;3.03;;;0.50;;
72791;SDS011;60907;53.268;8.764;2022-12-07T07:17:42;2.63;;;0.70;;
72791;SDS011;60907;53.268;8.764;2022-12-07T07:20:08;5.40;;;0.47;;
72791;SDS011;60907;53.268;8.764;2022-12-07T07:22:34;1.15;;;0.40;;
72791;SDS011;60907;53.268;8.764;2022-12-07T07:24:59;1.85;;;0.45;;
72791;SDS011;60907;53.268;8.764;2022-12-07T07:27:24;1.20;;;0.40;;
72791;SDS011;60907;53.268;8.764;2022-12-07T07:29:50;0.95;;;0.45;;
72791;SDS011;60907;53.268;8.764;2022-12-07T07:32:15;1.42;;;0.32;;
72791;SDS011;60907;53.268;8.764;2022-12-07T07:34:41;1.63;;;0.30;;
72791;SDS011;60907;53.268;8.764;2022-12-07T07:37:06;1.80;;;0.40;;
72791;SDS011;60907;53.268;8.764;2022-12-07T07:39:32;3.03;;;0.88;;
72791;SDS011;60907;53.268;8.764;2022-12-07T07:41:57;1.15;;;0.65;;
72791;SDS011;60907;53.268;8.764;2022-12-07T07:44:22;1.27;;;0.55;;
72791;SDS011;60907;53.268;8.764;2022-12-07T07:46:48;1.33;;;0.38;;
72791;SDS011;60907;53.268;8.764;2022-12-07T07:49:13;3.00;;;0.50;;
72791;SDS011;60907;53.268;8.764;2022-12-07T07:51:39;1.05;;;0.50;;
72791;SDS011;60907;53.268;8.764;2022-12-07T07:54:04;1.75;;;0.40;;
72791;SDS011;60907;53.268;8.764;2022-12-07T07:56:30;2.83;;;0.80;;
72791;SDS011;60907;53.268;8.764;2022-12-07T07:58:55;3.90;;;0.40;;
72791;SDS011;60907;53.268;8.764;2022-12-07T08:01:21;4.38;;;0.60;;
72791;SDS011;60907;53.268;8.764;2022-12-07T08:03:46;2.83;;;0.47;;
72791;SDS011;60907;53.268;8.764;2022-12-07T08:06:13;2.13;;;0.70;;
72791;SDS011;60907;53.268;8.764;2022-12-07T08:08:38;3.90;;;0.65;;
72791;SDS011;60907;53.268;8.764;2022-12-07T08:11:07;0.77;;;0.30;;
72791;SDS011;60907;53.268;8.764;2022-12-07T08:13:34;1.08;;;0.40;;
72791;SDS011;60907;53.268;8.764;2022-12-07T08:16:03;3.92;;;0.98;;
72791;SDS011;60907;53.268;8.764;2022-12-07T08:18:35;6.00;;;0.57;;
72791;SDS011;60907;53.268;8.764;2022-12-07T08:21:02;2.25;;;0.70;;
72791;SDS011;60907;53.268;8.764;2022-12-07T08:23:28;1.60;;;0.60;;
72791;SDS011;60907;53.268;8.764;2022-12-07T08:25:54;4.30;;;0.60;;
72791;SDS011;60907;53.268;8.764;2022-12-07T08:28:19;0.95;;;0.40;;
72791;SDS011;60907;53.268;8.764;2022-12-07T08:30:44;3.22;;;0.85;;
72791;SDS011;60907;53.268;8.764;2022-12-07T08:33:10;4.45;;;1.00;;
72791;SDS011;60907;53.268;8.764;2022-12-07T08:35:36;4.47;;;0.77;;
72791;SDS011;60907;53.268;8.764;2022-12-07T08:38:01;2.53;;;0.85;;
72791;SDS011;60907;53.268;8.764;2022-12-07T08:40:28;2.20;;;0.70;;
72791;SDS011;60907;53.268;8.764;2022-12-07T08:42:54;2.78;;;0.70;;
72791;SDS011;60907;53.268;8.764;2022-12-07T08:45:20;4.53;;;0.73;;
72791;SDS011;60907;53.268;8.764;2022-12-07T08:47:48;3.55;;;0.82;;
72791;SDS011;60907;53.268;8.764;2022-12-07T08:50:15;2.60;;;0.35;;
72791;SDS011;60907;53.268;8.764;2022-12-07T08:52:41;2.72;;;0.57;;
72791;SDS011;60907;53.268;8.764;2022-12-07T08:55:08;6.25;;;1.20;;
72791;SDS011;60907;53.268;8.764;2022-12-07T08:57:35;2.60;;;0.80;;
72791;SDS011;60907;53.268;8.764;2022-12-07T09:00:01;0.95;;;0.50;;
72791;SDS011;60907;53.268;8.764;2022-12-07T09:02:26;2.90;;;0.63;;
72791;SDS011;60907;53.268;8.764;2022-12-07T09:04:52;1.60;;;0.50;;
72791;SDS011;60907;53.268;8.764;2022-12-07T09:07:17;2.08;;;0.43;;
72791;SDS011;60907;53.268;8.764;2022-12-07T09:09:43;6.13;;;0.52;;
72791;SDS011;60907;53.268;8.764;2022-12-07T09:12:08;1.10;;;0.30;;
72791;SDS011;60907;53.268;8.764;2022-12-07T09:14:34;1.23;;;0.25;;
72791;SDS011;60907;53.268;8.764;2022-12-07T09:17:06;2.50;;;0.73;;
72791;SDS011;60907;53.268;8.764;2022-12-07T09:19:33;1.77;;;0.40;;
72791;SDS011;60907;53.268;8.764;2022-12-07T09:21:59;2.00;;;0.32;;
72791;SDS011;60907;53.268;8.764;2022-12-07T09:24:24;1.58;;;0.40;;
72791;SDS011;60907;53.268;8.764;2022-12-07T09:26:50;5.25;;;0.75;;
72791;SDS011;60907;53.268;8.764;2022-12-07T09:29:15;3.95;;;0.60;;
72791;SDS011;60907;53.268;8.764;2022-12-07T09:31:40;1.58;;;0.20;;
72791;SDS011;60907;53.268;8.764;2022-12-07T09:34:06;0.45;;;0.32;;
72791;SDS011;60907;53.268;8.764;2022-12-07T09:36:32;2.20;;;0.30;;
72791;SDS011;60907;53.268;8.764;2022-12-07T09:38:57;3.55;;;0.40;;
72791;SDS011;60907;53.268;8.764;2022-12-07T09:41:23;0.95;;;0.40;;
72791;SDS011;60907;53.268;8.764;2022-12-07T09:43:50;4.30;;;0.50;;
72791;SDS011;60907;53.268;8.764;2022-12-07T09:46:17;0.50;;;0.30;;
72791;SDS011;60907;53.268;8.764;2022-12-07T09:48:44;3.10;;;0.30;;
72791;SDS011;60907;53.268;8.764;2022-12-07T09:51:17;4.15;;;0.45;;
72791;SDS011;60907;53.268;8.764;2022-12-07T09:53:44;4.15;;;0.73;;
72791;SDS011;60907;53.268;8.764;2022-12-07T09:56:13;2.30;;;0.50;;
72791;SDS011;60907;53.268;8.764;2022-12-07T09:58:40;1.83;;;0.70;;
72791;SDS011;60907;53.268;8.764;2022-12-07T10:01:11;3.33;;;0.50;;
72791;SDS011;60907;53.268;8.764;2022-12-07T10:03:39;2.50;;;0.55;;
72791;SDS011;60907;53.268;8.764;2022-12-07T10:06:05;0.70;;;0.30;;
72791;SDS011;60907;53.268;8.764;2022-12-07T10:08:32;1.67;;;0.40;;
72791;SDS011;60907;53.268;8.764;2022-12-07T10:10:58;3.83;;;0.50;;
72791;SDS011;60907;53.268;8.764;2022-12-07T10:13:38;4.05;;;0.93;;
72791;SDS011;60907;53.268;8.764;2022-12-07T10:16:05;0.90;;;0.50;;
72791;SDS011;60907;53.268;8.764;2022-12-07T10:18:36;3.63;;;0.82;;
72791;SDS011;60907;53.268;8.764;2022-12-07T10:21:19;2.63;;;0.70;;
72791;SDS011;60907;53.268;8.764;2022-12-07T10:26:52;1.98;;;0.73;;
72791;SDS011;60907;53.268;8.764;2022-12-07T10:29:29;2.75;;;0.50;;
72791;SDS011;60907;53.268;8.764;2022-12-07T10:32:38;1.83;;;0.63;;
72791;SDS011;60907;53.268;8.764;2022-12-07T10:34:45;3.20;;;1.00;;
72791;SDS011;60907;53.268;8.764;2022-12-07T10:39:46;4.05;;;0.93;;
72791;SDS011;60907;53.268;8.764;2022-12-07T10:42:20;4.90;;;0.80;;
72791;SDS011;60907;53.268;8.764;2022-12-07T10:44:46;2.47;;;0.82;;
72791;SDS011;60907;53.268;8.764;2022-12-07T10:58:04;5.10;;;1.05;;
72791;SDS011;60907;53.268;8.764;2022-12-07T11:11:59;3.22;;;0.60;;
72791;SDS011;60907;53.268;8.764;2022-12-07T11:23:28;2.60;;;0.47;;
72791;SDS011;60907;53.268;8.764;2022-12-07T11:26:27;6.88;;;1.00;;
72791;SDS011;60907;53.268;8.764;2022-12-07T11:31:57;2.72;;;0.43;;
72791;SDS011;60907;53.268;8.764;2022-12-07T11:37:31;4.63;;;0.60;;
72791;SDS011;60907;53.268;8.764;2022-12-07T11:40:03;4.75;;;0.45;;
72791;SDS011;60907;53.268;8.764;2022-12-07T11:42:33;2.50;;;0.35;;
72791;SDS011;60907;53.268;8.764;2022-12-07T11:45:24;3.05;;;0.40;;
72791;SDS011;60907;53.268;8.764;2022-12-07T11:48:12;3.25;;;0.77;;
72791;SDS011;60907;53.268;8.764;2022-12-07T11:53:25;1.90;;;0.55;;
72791;SDS011;60907;53.268;8.764;2022-12-07T12:03:41;2.03;;;0.20;;
72791;SDS011;60907;53.268;8.764;2022-12-07T12:06:09;4.72;;;0.73;;
72791;SDS011;60907;53.268;8.764;2022-12-07T12:08:58;0.60;;;0.20;;
72791;SDS011;60907;53.268;8.764;2022-12-07T12:17:19;3.45;;;0.45;;
72791;SDS011;60907;53.268;8.764;2022-12-07T12:25:39;5.53;;;0.50;;
72791;SDS011;60907;53.268;8.764;2022-12-07T12:28:10;1.45;;;0.30;;
72791;SDS011;60907;53.268;8.764;2022-12-07T12:30:46;8.40;;;0.47;;
72791;SDS011;60907;53.268;8.764;2022-12-07T12:33:42;1.30;;;0.20;;
72791;SDS011;60907;53.268;8.764;2022-12-07T12:39:41;0.82;;;0.32;;
72791;SDS011;60907;53.268;8.764;2022-12-07T12:46:57;2.67;;;0.50;;
72791;SDS011;60907;53.268;8.764;2022-12-07T12:49:42;0.85;;;0.28;;
72791;SDS011;60907;53.268;8.764;2022-12-07T12:55:00;0.30;;;0.17;;
72791;SDS011;60907;53.268;8.764;2022-12-07T12:57:36;0.63;;;0.20;;
72791;SDS011;60907;53.268;8.764;2022-12-07T13:05:19;3.53;;;0.47;;
72791;SDS011;60907;53.268;8.764;2022-12-07T13:10:32;4.97;;;0.82;;
72791;SDS011;60907;53.268;8.764;2022-12-07T13:13:04;0.82;;;0.40;;
72791;SDS011;60907;53.268;8.764;2022-12-07T13:23:25;0.80;;;0.38;;
72791;SDS011;60907;53.268;8.764;2022-12-07T13:28:47;2.30;;;0.50;;
72791;SDS011;60907;53.268;8.764;2022-12-07T13:33:55;4.20;;;0.70;;
72791;SDS011;60907;53.268;8.764;2022-12-07T13:36:21;4.07;;;0.50;;
72791;SDS011;60907;53.268;8.764;2022-12-07T13:38:49;4.18;;;1.70;;
72791;SDS011;60907;53.268;8.764;2022-12-07T13:41:18;2.90;;;0.93;;
72791;SDS011;60907;53.268;8.764;2022-12-07T13:43:48;2.25;;;1.20;;
72791;SDS011;60907;53.268;8.764;2022-12-07T13:46:17;2.13;;;1.27;;
72791;SDS011;60907;53.268;8.764;2022-12-07T13:48:48;5.18;;;2.28;;
72791;SDS011;60907;53.268;8.764;2022-12-07T13:51:18;3.58;;;0.55;;
72791;SDS011;60907;53.268;8.764;2022-12-07T13:53:52;7.32;;;2.13;;
72791;SDS011;60907;53.268;8.764;2022-12-07T13:56:21;5.25;;;2.05;;
72791;SDS011;60907;53.268;8.764;2022-12-07T13:58:48;3.88;;;0.98;;
72791;SDS011;60907;53.268;8.764;2022-12-07T14:01:13;3.30;;;1.00;;
72791;SDS011;60907;53.268;8.764;2022-12-07T14:03:39;3.33;;;0.65;;
72791;SDS011;60907;53.268;8.764;2022-12-07T14:08:42;4.38;;;0.50;;
72791;SDS011;60907;53.268;8.764;2022-12-07T14:11:10;3.58;;;0.38;;
72791;SDS011;60907;53.268;8.764;2022-12-07T14:13:44;1.52;;;0.20;;
72791;SDS011;60907;53.268;8.764;2022-12-07T14:16:23;2.15;;;0.28;;
72791;SDS011;60907;53.268;8.764;2022-12-07T14:18:50;2.00;;;0.22;;
72791;SDS011;60907;53.268;8.764;2022-12-07T14:21:17;2.60;;;0.10;;
72791;SDS011;60907;53.268;8.764;2022-12-07T14:23:45;1.48;;;0.20;;
72791;SDS011;60907;53.268;8.764;2022-12-07T14:26:12;1.75;;;0.20;;
72791;SDS011;60907;53.268;8.764;2022-12-07T14:28:43;2.75;;;0.10;;
72791;SDS011;60907;53.268;8.764;2022-12-07T14:31:16;0.57;;;0.10;;
72791;SDS011;60907;53.268;8.764;2022-12-07T14:36:09;1.42;;;0.20;;
72791;SDS011;60907;53.268;8.764;2022-12-07T14:38:34;1.27;;;0.65;;
72791;SDS011;60907;53.268;8.764;2022-12-07T14:41:00;1.52;;;0.20;;
72791;SDS011;60907;53.268;8.764;2022-12-07T14:43:44;1.52;;;0.20;;
72791;SDS011;60907;53.268;8.764;2022-12-07T14:46:09;0.70;;;0.38;;
72791;SDS011;60907;53.268;8.764;2022-12-07T14:48:35;0.57;;;0.20;;
72791;SDS011;60907;53.268;8.764;2022-12-07T14:51:00;2.25;;;0.35;;
72791;SDS011;60907;53.268;8.764;2022-12-07T14:53:30;1.63;;;0.10;;
72791;SDS011;60907;53.268;8.764;2022-12-07T14:55:59;2.03;;;0.30;;
72791;SDS011;60907;53.268;8.764;2022-12-07T14:58:24;1.08;;;0.40;;
72791;SDS011;60907;53.268;8.764;2022-12-07T15:00:50;0.73;;;0.20;;
72791;SDS011;60907;53.268;8.764;2022-12-07T15:03:15;0.30;;;0.20;;
72791;SDS011;60907;53.268;8.764;2022-12-07T15:05:40;1.05;;;0.30;;
72791;SDS011;60907;53.268;8.764;2022-12-07T15:08:08;2.60;;;0.30;;
72791;SDS011;60907;53.268;8.764;2022-12-07T15:10:34;1.20;;;0.35;;
72791;SDS011;60907;53.268;8.764;2022-12-07T15:13:03;1.15;;;0.40;;
72791;SDS011;60907;53.268;8.764;2022-12-07T15:15:48;0.77;;;0.10;;
72791;SDS011;60907;53.268;8.764;2022-12-07T15:18:14;3.17;;;0.50;;
72791;SDS011;60907;53.268;8.764;2022-12-07T15:20:40;2.97;;;0.40;;
72791;SDS011;60907;53.268;8.764;2022-12-07T15:23:06;1.60;;;0.40;;
72791;SDS011;60907;53.268;8.764;2022-12-07T15:25:32;2.20;;;0.22;;
72791;SDS011;60907;53.268;8.764;2022-12-07T15:27:57;4.25;;;0.40;;
72791;SDS011;60907;53.268;8.764;2022-12-07T15:30:23;1.35;;;0.45;;
72791;SDS011;60907;53.268;8.764;2022-12-07T15:32:49;3.00;;;0.90;;
72791;SDS011;60907;53.268;8.764;2022-12-07T15:35:15;0.85;;;0.30;;
72791;SDS011;60907;53.268;8.764;2022-12-07T15:37:40;0.30;;;0.10;;
72791;SDS011;60907;53.268;8.764;2022-12-07T15:40:06;3.58;;;0.32;;
72791;SDS011;60907;53.268;8.764;2022-12-07T15:42:32;1.73;;;0.52;;
72791;SDS011;60907;53.268;8.764;2022-12-07T15:44:57;1.67;;;0.60;;
72791;SDS011;60907;53.268;8.764;2022-12-07T15:47:29;1.55;;;0.55;;
72791;SDS011;60907;53.268;8.764;2022-12-07T15:49:59;2.55;;;0.70;;
72791;SDS011;60907;53.268;8.764;2022-12-07T15:52:25;1.70;;;0.50;;
72791;SDS011;60907;53.268;8.764;2022-12-07T15:54:50;12.90;;;11.30;;
72791;SDS011;60907;53.268;8.764;2022-12-07T15:57:16;2.95;;;1.67;;
72791;SDS011;60907;53.268;8.764;2022-12-07T15:59:41;3.45;;;1.33;;
72791;SDS011;60907;53.268;8.764;2022-12-07T16:02:08;4.28;;;2.35;;
72791;SDS011;60907;53.268;8.764;2022-12-07T16:04:35;7.53;;;2.35;;
72791;SDS011;60907;53.268;8.764;2022-12-07T16:07:01;2.28;;;1.17;;
72791;SDS011;60907;53.268;8.764;2022-12-07T16:09:26;3.58;;;1.58;;
72791;SDS011;60907;53.268;8.764;2022-12-07T16:11:52;3.50;;;1.88;;
72791;SDS011;60907;53.268;8.764;2022-12-07T16:14:17;3.10;;;1.48;;
72791;SDS011;60907;53.268;8.764;2022-12-07T16:16:43;2.90;;;2.05;;
72791;SDS011;60907;53.268;8.764;2022-12-07T16:19:08;3.25;;;1.77;;
72791;SDS011;60907;53.268;8.764;2022-12-07T16:21:35;3.00;;;1.80;;
72791;SDS011;60907;53.268;8.764;2022-12-07T16:24:01;6.95;;;1.98;;
72791;SDS011;60907;53.268;8.764;2022-12-07T16:26:27;4.22;;;2.95;;
72791;SDS011;60907;53.268;8.764;2022-12-07T16:28:53;3.13;;;1.40;;
72791;SDS011;60907;53.268;8.764;2022-12-07T16:31:22;4.63;;;1.27;;
72791;SDS011;60907;53.268;8.764;2022-12-07T16:33:49;2.58;;;1.50;;
72791;SDS011;60907;53.268;8.764;2022-12-07T16:36:16;1.85;;;1.20;;
72791;SDS011;60907;53.268;8.764;2022-12-07T16:38:42;2.28;;;0.90;;
72791;SDS011;60907;53.268;8.764;2022-12-07T16:41:08;1.80;;;0.77;;
72791;SDS011;60907;53.268;8.764;2022-12-07T16:43:34;2.25;;;1.30;;
72791;SDS011;60907;53.268;8.764;2022-12-07T16:46:00;1.25;;;1.02;;
72791;SDS011;60907;53.268;8.764;2022-12-07T16:48:26;2.25;;;1.23;;
72791;SDS011;60907;53.268;8.764;2022-12-07T16:50:51;3.55;;;1.05;;
72791;SDS011;60907;53.268;8.764;2022-12-07T16:53:18;2.45;;;1.13;;
72791;SDS011;60907;53.268;8.764;2022-12-07T16:55:44;3.97;;;1.17;;
72791;SDS011;60907;53.268;8.764;2022-12-07T16:58:13;1.95;;;0.88;;
72791;SDS011;60907;53.268;8.764;2022-12-07T17:00:40;3.47;;;1.17;;
72791;SDS011;60907;53.268;8.764;2022-12-07T17:03:06;1.63;;;1.17;;
72791;SDS011;60907;53.268;8.764;2022-12-07T17:05:32;8.43;;;2.10;;
72791;SDS011;60907;53.268;8.764;2022-12-07T17:07:58;7.68;;;3.03;;
72791;SDS011;60907;53.268;8.764;2022-12-07T17:10:24;5.88;;;2.30;;
72791;SDS011;60907;53.268;8.764;2022-12-07T17:12:50;29.35;;;8.93;;
72791;SDS011;60907;53.268;8.764;2022-12-07T17:15:16;3.35;;;1.95;;
72791;SDS011;60907;53.268;8.764;2022-12-07T17:17:45;3.92;;;1.40;;
72791;SDS011;60907;53.268;8.764;2022-12-07T17:20:12;3.50;;;1.65;;
72791;SDS011;60907;53.268;8.764;2022-12-07T17:22:39;4.82;;;2.25;;
72791;SDS011;60907;53.268;8.764;2022-12-07T17:25:04;5.97;;;1.98;;
72791;SDS011;60907;53.268;8.764;2022-12-07T17:27:30;4.20;;;2.40;;